Weather at Mosqueda Airport

Public forecast

Using degrees Celsius for public forecast. Weather courtesy of forecast.io.

Closest aviation weather report (METAR) to Mosqueda Airport

Closest report is General Rodolfo Sánchez Taboada International Airport, 28.1 nm (52.0 km) N. Retrieved 2020/09/23 01:45 UTC (24 minutes ago):

MMML 230145Z 26004KT 10SM SKC 36/04 A2983

Closest aviation forecast (TAF) to Mosqueda Airport

Forecast is more than 6 hours old.

Closest forecast is General Rodolfo Sánchez Taboada International Airport, 28.1 nm (52.0 km) N. Retrieved 2020/09/22 18:12 UTC (8 hours ago):

TAF MMML 221705Z 2218/2318 20010KT P6SM SKC FM230300 00000KT P6SM SKC